createdAt,value
2018-04-23T00:00:14.325Z,12.50
2018-04-23T00:00:48.186Z,16.20
2018-04-23T00:01:22.047Z,11.02
2018-04-23T00:01:55.914Z,11.50
2018-04-23T00:02:29.784Z,13.57
2018-04-23T00:03:03.661Z,13.00
2018-04-23T00:03:37.522Z,11.68
2018-04-23T00:04:11.400Z,11.30
2018-04-23T00:04:45.328Z,11.75
2018-04-23T00:05:19.196Z,12.32
2018-04-23T00:05:53.048Z,12.02
2018-04-23T00:06:26.921Z,11.57
2018-04-23T00:07:00.810Z,13.52
2018-04-23T00:07:34.692Z,12.05
2018-04-23T00:08:08.575Z,12.00
2018-04-23T00:08:42.465Z,12.48
2018-04-23T00:09:16.340Z,13.35
2018-04-23T00:09:50.204Z,11.50
2018-04-23T00:10:24.059Z,12.02
2018-04-23T00:10:57.931Z,13.18
2018-04-23T00:11:31.796Z,12.48
2018-04-23T00:12:05.662Z,10.82
2018-04-23T00:12:39.556Z,10.48
2018-04-23T00:13:13.441Z,11.12
2018-04-23T00:13:47.312Z,12.63
2018-04-23T00:14:21.212Z,12.95
2018-04-23T00:14:55.069Z,11.68
2018-04-23T00:15:28.920Z,13.40
2018-04-23T00:16:02.778Z,12.98
2018-04-23T00:16:36.647Z,10.88
2018-04-23T00:17:10.505Z,10.18
2018-04-23T00:17:44.382Z,12.05
2018-04-23T00:18:18.222Z,10.73
2018-04-23T00:18:52.071Z,12.60
2018-04-23T00:19:25.944Z,12.37
2018-04-23T00:19:59.841Z,11.68
2018-04-23T00:20:33.710Z,10.30
2018-04-23T00:21:07.573Z,10.65
2018-04-23T00:21:41.484Z,11.45
2018-04-23T00:22:15.350Z,12.35
2018-04-23T00:22:49.213Z,12.15
2018-04-23T00:23:23.147Z,11.00
2018-04-23T00:23:57.012Z,12.68
2018-04-23T00:24:30.891Z,10.35
2018-04-23T00:25:04.748Z,10.27
2018-04-23T00:25:38.626Z,14.25
2018-04-23T00:26:12.491Z,12.18
2018-04-23T00:26:46.369Z,12.60
2018-04-23T00:27:20.231Z,17.08
2018-04-23T00:27:54.103Z,13.25
2018-04-23T00:28:27.971Z,11.48
2018-04-23T00:29:01.850Z,13.07
2018-04-23T00:29:35.760Z,10.70
2018-04-23T00:30:09.634Z,11.48
2018-04-23T00:30:43.519Z,10.32
2018-04-23T00:31:17.364Z,10.50
2018-04-23T00:31:51.235Z,12.50
2018-04-23T00:32:25.106Z,11.23
2018-04-23T00:32:58.971Z,11.00
2018-04-23T00:33:32.880Z,11.30
2018-04-23T00:34:06.766Z,9.90
2018-04-23T00:34:40.631Z,10.85
2018-04-23T00:35:14.506Z,9.85
2018-04-23T00:35:48.375Z,10.40
2018-04-23T00:36:22.227Z,10.82
2018-04-23T00:36:56.080Z,11.77
2018-04-23T00:37:29.930Z,9.75
2018-04-23T00:38:03.805Z,10.07
2018-04-23T00:38:37.664Z,10.27
2018-04-23T00:39:11.575Z,13.75
2018-04-23T00:39:45.493Z,12.13
2018-04-23T00:40:19.355Z,11.93
2018-04-23T00:40:53.211Z,11.93
2018-04-23T00:41:27.075Z,11.57
2018-04-23T00:42:00.933Z,12.27
2018-04-23T00:42:34.804Z,10.48
2018-04-23T00:43:08.777Z,13.27
2018-04-23T00:43:42.647Z,10.95
2018-04-23T00:44:16.504Z,9.13
2018-04-23T00:44:50.379Z,11.02
2018-04-23T00:45:24.240Z,11.15
2018-04-23T00:45:58.619Z,10.60
2018-04-23T00:46:32.476Z,10.48
2018-04-23T00:47:06.345Z,9.85
2018-04-23T00:47:40.353Z,9.93
2018-04-23T00:48:14.203Z,9.60
2018-04-23T00:48:48.068Z,10.02
2018-04-23T00:49:21.924Z,10.90
2018-04-23T00:49:55.800Z,10.15
2018-04-23T00:50:29.821Z,11.05
2018-04-23T00:51:03.823Z,10.43
2018-04-23T00:51:37.723Z,11.48
2018-04-23T00:52:11.589Z,10.10
2018-04-23T00:52:45.489Z,11.23
2018-04-23T00:53:25.343Z,11.25
2018-04-23T00:53:59.563Z,10.45
2018-04-23T00:54:33.433Z,10.20
2018-04-23T00:55:07.335Z,12.43
2018-04-23T00:55:41.214Z,11.10
2018-04-23T00:56:15.075Z,12.43
2018-04-23T00:56:48.932Z,11.70
2018-04-23T00:57:22.814Z,10.13
2018-04-23T00:57:56.694Z,10.07
2018-04-23T00:58:30.554Z,9.55
2018-04-23T00:59:04.405Z,9.88
2018-04-23T00:59:38.311Z,10.55
2018-04-23T01:00:13.048Z,9.93
2018-04-23T01:00:46.912Z,10.07
2018-04-23T01:01:20.805Z,10.68
2018-04-23T01:01:54.651Z,9.80
2018-04-23T01:02:28.524Z,9.90
2018-04-23T01:03:02.396Z,12.70
2018-04-23T01:03:36.252Z,12.70
2018-04-23T01:04:10.109Z,10.57
2018-04-23T01:04:43.979Z,10.75
2018-04-23T01:05:17.845Z,11.18
2018-04-23T01:05:51.700Z,11.00
2018-04-23T01:06:25.547Z,9.25
2018-04-23T01:06:59.409Z,11.10
2018-04-23T01:07:33.270Z,10.48
2018-04-23T01:08:07.156Z,10.00
2018-04-23T01:08:41.010Z,12.15
2018-04-23T01:09:14.880Z,10.52
2018-04-23T01:09:48.731Z,10.25
2018-04-23T01:10:22.612Z,10.52
2018-04-23T01:10:56.465Z,12.75
2018-04-23T01:11:30.363Z,10.02
2018-04-23T01:12:04.222Z,9.82
2018-04-23T01:12:38.080Z,11.00
2018-04-23T01:13:12.086Z,10.93
2018-04-23T01:13:45.939Z,9.88
2018-04-23T01:14:19.800Z,10.35
2018-04-23T01:14:53.653Z,10.57
2018-04-23T01:15:27.540Z,10.35
2018-04-23T01:16:01.625Z,11.48
2018-04-23T01:16:35.485Z,9.20
2018-04-23T01:17:09.345Z,10.10
2018-04-23T01:17:43.226Z,12.27
2018-04-23T01:18:17.102Z,12.23
2018-04-23T01:18:50.964Z,9.35
2018-04-23T01:19:24.816Z,10.30
2018-04-23T01:19:58.696Z,9.60
2018-04-23T01:20:32.567Z,10.18
2018-04-23T01:21:06.412Z,9.57
2018-04-23T01:21:40.281Z,9.55
2018-04-23T01:22:14.136Z,9.48
2018-04-23T01:22:47.995Z,10.35
2018-04-23T01:23:21.868Z,11.38
2018-04-23T01:23:55.727Z,10.45
2018-04-23T01:24:29.591Z,10.10
2018-04-23T01:25:03.475Z,9.93
2018-04-23T01:25:37.367Z,13.98
2018-04-23T01:26:11.232Z,9.50
2018-04-23T01:26:45.089Z,9.27
2018-04-23T01:27:19.021Z,9.50
2018-04-23T01:27:52.917Z,10.68
2018-04-23T01:28:26.793Z,9.70
2018-04-23T01:29:00.660Z,9.10
2018-04-23T01:29:34.537Z,11.55
2018-04-23T01:30:08.421Z,9.98
2018-04-23T01:30:42.310Z,9.82
2018-04-23T01:31:16.161Z,9.65
2018-04-23T01:31:50.016Z,10.15
2018-04-23T01:32:23.869Z,10.63
2018-04-23T01:32:57.724Z,11.43
2018-04-23T01:33:31.583Z,9.48
2018-04-23T01:34:05.444Z,10.10
2018-04-23T01:34:39.293Z,10.18
2018-04-23T01:35:13.188Z,9.82
2018-04-23T01:35:47.059Z,9.90
2018-04-23T01:36:20.920Z,10.50
2018-04-23T01:36:54.800Z,10.30
2018-04-23T01:37:28.679Z,11.18
2018-04-23T01:38:02.541Z,10.85
2018-04-23T01:38:36.404Z,10.00
2018-04-23T01:39:10.251Z,9.85
2018-04-23T01:39:44.108Z,10.77
2018-04-23T01:40:17.970Z,11.95
2018-04-23T01:40:51.859Z,10.35
2018-04-23T01:41:26.032Z,10.60
2018-04-23T01:41:59.889Z,9.43
2018-04-23T01:42:33.742Z,10.13
2018-04-23T01:43:07.612Z,10.00
2018-04-23T01:43:41.482Z,11.07
2018-04-23T01:44:15.342Z,9.73
2018-04-23T01:44:49.196Z,10.95
2018-04-23T01:45:23.065Z,10.45
2018-04-23T01:45:56.952Z,13.43
2018-04-23T01:46:30.803Z,10.93
2018-04-23T01:47:04.692Z,11.07
2018-04-23T01:47:38.585Z,10.38
2018-04-23T01:48:12.452Z,9.63
2018-04-23T01:48:46.321Z,9.35
2018-04-23T01:49:20.180Z,10.50
2018-04-23T01:49:54.055Z,10.45
2018-04-23T01:50:27.912Z,10.25
2018-04-23T01:51:01.798Z,10.88
2018-04-23T01:51:35.653Z,10.68
2018-04-23T01:52:09.510Z,11.32
2018-04-23T01:52:43.371Z,9.75
2018-04-23T01:53:17.237Z,9.35
2018-04-23T01:53:51.103Z,10.13
2018-04-23T01:54:24.954Z,10.43
2018-04-23T01:54:58.843Z,10.48
2018-04-23T01:55:32.705Z,10.60
2018-04-23T01:56:06.610Z,9.95
2018-04-23T01:56:40.465Z,10.07
2018-04-23T01:57:14.355Z,9.90
2018-04-23T01:57:48.221Z,9.95
2018-04-23T01:58:22.090Z,10.32
2018-04-23T01:58:55.956Z,10.68
2018-04-23T01:59:29.813Z,10.15
2018-04-23T02:00:03.674Z,9.68
2018-04-23T02:00:37.541Z,11.20
2018-04-23T02:01:11.472Z,14.40
2018-04-23T02:01:45.427Z,10.18
2018-04-23T02:02:19.284Z,10.23
2018-04-23T02:02:53.157Z,12.65
2018-04-23T02:03:27.010Z,10.05
2018-04-23T02:04:00.903Z,10.70
2018-04-23T02:04:34.760Z,10.23
2018-04-23T02:05:08.658Z,11.98
2018-04-23T02:05:42.512Z,11.05
2018-04-23T02:06:16.384Z,11.70
2018-04-23T02:06:50.250Z,10.88
2018-04-23T02:07:24.121Z,11.18
2018-04-23T02:07:58.004Z,10.27
2018-04-23T02:08:31.890Z,17.23
2018-04-23T02:09:05.749Z,13.48
2018-04-23T02:09:39.603Z,10.48
2018-04-23T02:10:13.489Z,10.45
2018-04-23T02:10:47.345Z,11.68
2018-04-23T02:11:21.236Z,11.15
2018-04-23T02:11:55.081Z,11.63
2018-04-23T02:12:28.931Z,10.10
2018-04-23T02:13:02.787Z,10.23
2018-04-23T02:13:36.666Z,17.30
2018-04-23T02:14:10.524Z,10.30
2018-04-23T02:14:44.391Z,11.05
2018-04-23T02:15:18.248Z,12.15
2018-04-23T02:15:52.121Z,11.32
2018-04-23T02:16:26.061Z,11.45
2018-04-23T02:16:59.923Z,13.68
2018-04-23T02:17:33.799Z,10.55
2018-04-23T02:18:07.663Z,11.65
2018-04-23T02:18:41.520Z,13.48
2018-04-23T02:19:15.395Z,11.63
2018-04-23T02:19:49.272Z,11.75
2018-04-23T02:20:23.147Z,10.63
2018-04-23T02:20:57.038Z,11.35
2018-04-23T02:21:30.932Z,11.65
2018-04-23T02:22:04.792Z,11.90
2018-04-23T02:22:38.700Z,13.35
2018-04-23T02:23:12.563Z,10.02
2018-04-23T02:23:46.420Z,10.70
2018-04-23T02:24:20.283Z,10.98
2018-04-23T02:24:54.142Z,11.20
2018-04-23T02:25:28.032Z,15.23
2018-04-23T02:26:01.888Z,11.68
2018-04-23T02:26:35.761Z,11.38
2018-04-23T02:27:09.634Z,11.30
2018-04-23T02:27:43.503Z,11.65
2018-04-23T02:28:17.399Z,11.32
2018-04-23T02:28:51.263Z,11.18
2018-04-23T02:29:25.140Z,11.23
2018-04-23T02:29:59.015Z,13.57
2018-04-23T02:30:32.883Z,11.10
2018-04-23T02:31:06.734Z,13.35
2018-04-23T02:31:40.617Z,17.20
2018-04-23T02:32:14.488Z,11.63
2018-04-23T02:32:48.352Z,12.15
2018-04-23T02:33:22.219Z,15.43
2018-04-23T02:33:56.100Z,10.98
2018-04-23T02:34:29.975Z,10.93
2018-04-23T02:35:03.836Z,11.75
2018-04-23T02:35:37.726Z,11.80
2018-04-23T02:36:11.654Z,12.68
2018-04-23T02:36:45.541Z,11.70
2018-04-23T02:37:19.404Z,11.68
2018-04-23T02:37:53.254Z,10.38
2018-04-23T02:38:27.110Z,11.95
2018-04-23T02:39:00.985Z,11.40
2018-04-23T02:39:34.848Z,11.05
2018-04-23T02:40:08.710Z,10.70
2018-04-23T02:40:42.572Z,10.20
2018-04-23T02:41:16.443Z,10.85
2018-04-23T02:41:50.474Z,10.95
2018-04-23T02:42:24.337Z,10.50
2018-04-23T02:42:58.216Z,10.70
2018-04-23T02:43:32.068Z,13.15
2018-04-23T02:44:05.936Z,11.80
2018-04-23T02:44:39.822Z,10.30
2018-04-23T02:45:13.700Z,11.23
2018-04-23T02:45:47.554Z,9.70
2018-04-23T02:46:21.417Z,11.20
2018-04-23T02:46:55.306Z,11.48
2018-04-23T02:47:29.165Z,10.27
2018-04-23T02:48:03.031Z,10.07
2018-04-23T02:48:36.907Z,9.88
2018-04-23T02:49:10.794Z,9.90
2018-04-23T02:49:44.658Z,10.40
2018-04-23T02:50:18.512Z,9.70
2018-04-23T02:50:52.381Z,10.18
2018-04-23T02:51:26.249Z,11.45
2018-04-23T02:52:00.117Z,9.98
2018-04-23T02:52:33.996Z,11.00
2018-04-23T02:53:07.891Z,10.40
2018-04-23T02:53:41.756Z,9.85
2018-04-23T02:54:15.610Z,9.90
2018-04-23T02:54:49.484Z,14.38
2018-04-23T02:55:23.330Z,9.75
2018-04-23T02:55:57.204Z,10.85
2018-04-23T02:56:31.063Z,9.90
2018-04-23T02:57:04.934Z,9.88
2018-04-23T02:57:38.821Z,10.65
2018-04-23T02:58:12.692Z,9.82
2018-04-23T02:58:46.556Z,13.77
2018-04-23T02:59:20.416Z,9.52
2018-04-23T02:59:54.304Z,11.05
2018-04-23T03:00:28.174Z,9.63
2018-04-23T03:01:02.032Z,9.77
2018-04-23T03:01:35.883Z,9.30
2018-04-23T03:02:09.760Z,9.73
2018-04-23T03:02:43.620Z,9.38
2018-04-23T03:03:17.480Z,10.38
2018-04-23T03:03:51.341Z,9.40
2018-04-23T03:04:25.196Z,9.65
2018-04-23T03:04:59.041Z,9.02
2018-04-23T03:05:32.894Z,9.48
2018-04-23T03:06:06.775Z,10.00
2018-04-23T03:06:40.623Z,8.40
2018-04-23T03:07:14.495Z,9.45
2018-04-23T03:07:48.362Z,10.77
2018-04-23T03:08:22.228Z,9.90
2018-04-23T03:08:56.082Z,9.35
2018-04-23T03:09:29.936Z,9.93
2018-04-23T03:10:03.798Z,9.95
2018-04-23T03:10:37.666Z,8.70
2018-04-23T03:11:11.546Z,12.90
2018-04-23T03:11:45.410Z,8.27
2018-04-23T03:12:19.288Z,10.77
2018-04-23T03:12:53.140Z,14.35
2018-04-23T03:13:26.999Z,9.25
2018-04-23T03:14:00.859Z,12.57
2018-04-23T03:14:34.712Z,9.10
2018-04-23T03:15:08.590Z,8.68
2018-04-23T03:15:42.452Z,9.32
2018-04-23T03:16:16.324Z,10.32
2018-04-23T03:16:50.185Z,8.70
2018-04-23T03:17:24.056Z,9.80
2018-04-23T03:17:57.937Z,12.55
2018-04-23T03:18:31.792Z,8.75
2018-04-23T03:19:05.653Z,8.85
2018-04-23T03:19:39.508Z,9.15
2018-04-23T03:20:13.375Z,9.68
2018-04-23T03:20:47.280Z,8.40
2018-04-23T03:21:21.139Z,8.25
2018-04-23T03:21:55.012Z,9.57
2018-04-23T03:22:28.911Z,9.00
2018-04-23T03:23:02.760Z,12.45
2018-04-23T03:23:36.620Z,10.63
2018-04-23T03:24:10.488Z,9.00
2018-04-23T03:24:44.344Z,9.98
2018-04-23T03:25:18.209Z,9.75
2018-04-23T03:25:52.073Z,9.88
2018-04-23T03:26:25.968Z,9.48
2018-04-23T03:26:59.849Z,9.38
2018-04-23T03:27:33.726Z,9.05
2018-04-23T03:28:07.585Z,9.38
2018-04-23T03:28:41.443Z,9.07
2018-04-23T03:29:15.299Z,9.02
2018-04-23T03:29:49.167Z,10.00
2018-04-23T03:30:23.025Z,11.30
2018-04-23T03:30:56.876Z,13.02
2018-04-23T03:31:30.761Z,10.65
2018-04-23T03:32:04.637Z,9.07
2018-04-23T03:32:38.550Z,11.05
2018-04-23T03:33:12.432Z,10.70
2018-04-23T03:33:46.320Z,9.55
2018-04-23T03:34:20.169Z,14.02
2018-04-23T03:34:54.028Z,12.15
2018-04-23T03:35:27.875Z,11.00
2018-04-23T03:36:01.734Z,13.45
2018-04-23T03:36:35.613Z,11.40
2018-04-23T03:37:09.485Z,13.98
2018-04-23T03:37:43.489Z,10.93
2018-04-23T03:38:17.366Z,11.73
2018-04-23T03:38:51.244Z,11.52
2018-04-23T03:39:25.116Z,9.98
2018-04-23T03:39:58.974Z,14.50
2018-04-23T03:40:32.840Z,12.00
2018-04-23T03:41:06.697Z,14.13
2018-04-23T03:41:40.579Z,14.87
2018-04-23T03:42:14.436Z,10.65
2018-04-23T03:42:48.340Z,12.65
2018-04-23T03:43:22.235Z,17.55
2018-04-23T03:43:56.107Z,11.10
2018-04-23T03:44:30.002Z,11.50
2018-04-23T03:45:03.855Z,12.90
2018-04-23T03:45:37.714Z,23.87
2018-04-23T03:46:12.750Z,12.40
2018-04-23T03:46:46.603Z,10.60
2018-04-23T03:47:20.473Z,12.43
2018-04-23T03:47:54.384Z,11.15
2018-04-23T03:48:28.259Z,11.85
2018-04-23T03:49:02.117Z,11.55
2018-04-23T03:49:35.973Z,11.57
2018-04-23T03:50:09.884Z,14.87
2018-04-23T03:50:43.779Z,10.90
2018-04-23T03:51:17.630Z,11.30
2018-04-23T03:51:51.559Z,10.18
2018-04-23T03:52:25.414Z,11.88
2018-04-23T03:52:59.316Z,10.77
2018-04-23T03:53:33.215Z,11.60
2018-04-23T03:54:07.061Z,9.57
2018-04-23T03:54:40.925Z,12.35
2018-04-23T03:55:14.813Z,12.13
2018-04-23T03:55:48.712Z,10.60
2018-04-23T03:56:22.568Z,10.20
2018-04-23T03:56:56.440Z,8.98
2018-04-23T03:57:30.290Z,9.25
2018-04-23T03:58:04.157Z,9.80
2018-04-23T03:58:38.033Z,10.27
2018-04-23T03:59:11.971Z,11.60
2018-04-23T03:59:45.831Z,10.43
2018-04-23T04:00:19.689Z,10.63
2018-04-23T04:00:53.546Z,12.60
2018-04-23T04:01:27.402Z,9.57
2018-04-23T04:02:01.264Z,11.80
2018-04-23T04:02:35.127Z,9.60
2018-04-23T04:03:09.013Z,10.05
2018-04-23T04:03:42.917Z,10.90
2018-04-23T04:04:16.844Z,12.13
2018-04-23T04:04:50.691Z,11.18
2018-04-23T04:05:24.542Z,9.95
2018-04-23T04:05:58.419Z,9.90
2018-04-23T04:06:32.284Z,10.98
2018-04-23T04:07:06.152Z,14.68
2018-04-23T04:07:40.079Z,9.82
2018-04-23T04:08:13.955Z,10.95
2018-04-23T04:08:47.822Z,10.70
2018-04-23T04:09:21.709Z,9.43
2018-04-23T04:09:55.539Z,10.02
2018-04-23T04:10:29.395Z,13.02
2018-04-23T04:11:03.267Z,10.68
2018-04-23T04:11:37.164Z,11.68
2018-04-23T04:12:16.863Z,12.10
2018-04-23T04:12:56.520Z,10.35
2018-04-23T04:13:36.322Z,11.32
2018-04-23T04:14:16.041Z,11.23
2018-04-23T04:14:56.038Z,9.18
2018-04-23T04:15:35.735Z,12.75
2018-04-23T04:16:15.697Z,10.02
2018-04-23T04:16:55.386Z,13.95
2018-04-23T04:17:44.965Z,9.98
2018-04-23T04:18:33.632Z,10.05
2018-04-23T04:19:07.516Z,10.10
2018-04-23T04:19:41.395Z,12.60
2018-04-23T04:20:15.268Z,9.30
2018-04-23T04:20:49.161Z,12.00
2018-04-23T04:21:23.013Z,14.18
2018-04-23T04:21:56.873Z,9.50
2018-04-23T04:22:30.733Z,10.63
2018-04-23T04:23:04.623Z,11.73
2018-04-23T04:23:38.862Z,16.70
2018-04-23T04:24:12.741Z,10.68
2018-04-23T04:24:46.591Z,10.10
2018-04-23T04:25:20.493Z,9.80
2018-04-23T04:25:54.344Z,9.52
2018-04-23T04:26:28.273Z,9.40
2018-04-23T04:27:02.128Z,9.98
2018-04-23T04:27:36.023Z,10.07
2018-04-23T04:28:09.898Z,10.20
2018-04-23T04:28:44.603Z,13.07
2018-04-23T04:29:18.464Z,8.55
2018-04-23T04:29:52.324Z,9.57
2018-04-23T04:30:26.186Z,9.55
2018-04-23T04:31:00.035Z,9.73
2018-04-23T04:31:33.903Z,9.77
2018-04-23T04:32:07.756Z,12.27
2018-04-23T04:32:41.638Z,10.63
2018-04-23T04:33:15.630Z,10.43
2018-04-23T04:33:49.505Z,10.10
2018-04-23T04:34:23.375Z,10.25
2018-04-23T04:34:57.240Z,13.73
2018-04-23T04:35:31.130Z,11.48
2018-04-23T04:36:04.972Z,9.98
2018-04-23T04:36:38.973Z,10.48
2018-04-23T04:37:12.855Z,11.18
2018-04-23T04:37:46.797Z,13.27
2018-04-23T04:38:20.740Z,10.60
2018-04-23T04:38:54.555Z,10.30
2018-04-23T04:39:28.443Z,10.02
2018-04-23T04:40:02.304Z,11.45
2018-04-23T04:40:36.178Z,13.50
2018-04-23T04:41:10.060Z,10.80
2018-04-23T04:41:43.960Z,14.55
2018-04-23T04:42:17.833Z,11.35
2018-04-23T04:42:51.704Z,14.43
2018-04-23T04:43:25.574Z,11.18
2018-04-23T04:43:59.519Z,12.82
2018-04-23T04:44:33.374Z,15.23
2018-04-23T04:45:07.231Z,10.15
2018-04-23T04:45:41.091Z,10.85
2018-04-23T04:46:15.038Z,11.70
2018-04-23T04:46:48.928Z,9.23
2018-04-23T04:47:23.014Z,16.55
2018-04-23T04:47:56.898Z,10.45
2018-04-23T04:48:30.775Z,11.12
2018-04-23T04:49:04.628Z,15.95
2018-04-23T04:49:38.583Z,14.40
2018-04-23T04:50:12.513Z,12.40
2018-04-23T04:50:46.380Z,13.40
2018-04-23T04:51:20.242Z,14.80
2018-04-23T04:51:54.144Z,10.75
2018-04-23T04:52:28.038Z,16.02
2018-04-23T04:53:01.891Z,10.60
2018-04-23T04:53:35.752Z,13.93
2018-04-23T04:54:09.611Z,10.00
2018-04-23T04:54:43.490Z,10.13
2018-04-23T04:55:17.352Z,12.32
2018-04-23T04:55:51.542Z,11.77
2018-04-23T04:56:25.432Z,10.13
2018-04-23T04:56:59.334Z,11.10
2018-04-23T04:57:33.241Z,11.70
2018-04-23T04:58:07.087Z,12.07
2018-04-23T04:58:40.944Z,10.40
2018-04-23T04:59:14.824Z,16.10
2018-04-23T04:59:48.684Z,14.05
2018-04-23T05:00:22.585Z,12.77
2018-04-23T05:00:56.470Z,10.80
2018-04-23T05:01:30.401Z,10.98
2018-04-23T05:02:04.285Z,11.02
2018-04-23T05:02:38.176Z,13.65
2018-04-23T05:03:12.289Z,12.15
2018-04-23T05:03:46.269Z,12.75
2018-04-23T05:04:20.176Z,13.00
2018-04-23T05:04:54.087Z,13.48
2018-04-23T05:05:27.943Z,9.50
2018-04-23T05:06:02.012Z,11.60
2018-04-23T05:06:35.889Z,14.40
2018-04-23T05:07:09.895Z,9.63
2018-04-23T05:07:43.780Z,12.23
2018-04-23T05:08:17.690Z,9.15
2018-04-23T05:08:51.556Z,13.65
2018-04-23T05:09:25.455Z,10.30
2018-04-23T05:09:59.348Z,10.13
2018-04-23T05:10:33.254Z,11.68
2018-04-23T05:11:07.126Z,10.13
2018-04-23T05:11:41.386Z,13.13
2018-04-23T05:12:15.253Z,15.38
2018-04-23T05:12:49.114Z,14.40
2018-04-23T05:13:23.210Z,16.80
2018-04-23T05:13:57.127Z,11.10
2018-04-23T05:14:30.998Z,13.62
2018-04-23T05:15:04.912Z,16.48
2018-04-23T05:15:38.847Z,11.50
2018-04-23T05:16:12.700Z,12.45
2018-04-23T05:16:46.612Z,14.43
2018-04-23T05:17:20.552Z,15.68
2018-04-23T05:17:54.404Z,8.73
2018-04-23T05:18:28.276Z,11.65
2018-04-23T05:19:02.191Z,13.40
2018-04-23T05:19:36.044Z,15.98
2018-04-23T05:20:09.939Z,14.38
2018-04-23T05:20:43.807Z,17.60
2018-04-23T05:21:17.671Z,10.30
2018-04-23T05:21:51.544Z,10.48
2018-04-23T05:22:25.405Z,9.45
2018-04-23T05:22:59.300Z,10.02
2018-04-23T05:23:33.163Z,10.32
2018-04-23T05:24:07.108Z,10.93
2018-04-23T05:24:41.021Z,9.93
2018-04-23T05:25:14.939Z,11.05
2018-04-23T05:25:48.789Z,13.45
2018-04-23T05:26:22.651Z,16.20
2018-04-23T05:26:56.636Z,11.10
2018-04-23T05:27:30.524Z,11.82
2018-04-23T05:28:04.393Z,9.93
2018-04-23T05:28:38.266Z,11.95
2018-04-23T05:29:12.170Z,11.52
2018-04-23T05:29:46.191Z,12.70
2018-04-23T05:30:20.050Z,13.43
2018-04-23T05:30:54.008Z,11.50
2018-04-23T05:31:27.876Z,12.52
2018-04-23T05:32:01.743Z,11.25
2018-04-23T05:32:35.766Z,12.13
2018-04-23T05:33:10.416Z,9.90
2018-04-23T05:33:44.289Z,12.55
2018-04-23T05:34:18.158Z,14.93
2018-04-23T05:34:52.022Z,11.52
2018-04-23T05:35:25.923Z,11.23
2018-04-23T05:35:59.778Z,11.00
2018-04-23T05:36:33.671Z,10.85
2018-04-23T05:37:07.540Z,14.13
2018-04-23T05:37:41.429Z,9.82
2018-04-23T05:38:15.288Z,12.18
2018-04-23T05:38:49.236Z,15.65
2018-04-23T05:39:23.211Z,10.32
2018-04-23T05:39:57.321Z,9.85
2018-04-23T05:40:31.240Z,12.77
2018-04-23T05:41:05.104Z,11.57
2018-04-23T05:41:39.020Z,11.35
2018-04-23T05:42:12.897Z,13.00
2018-04-23T05:42:46.822Z,13.18
2018-04-23T05:43:20.667Z,11.48
2018-04-23T05:43:54.571Z,10.50
2018-04-23T05:44:28.439Z,10.40
2018-04-23T05:45:02.328Z,9.77
2018-04-23T05:45:36.223Z,11.82
2018-04-23T05:46:10.178Z,10.32
2018-04-23T05:46:44.171Z,11.25
2018-04-23T05:47:18.173Z,10.77
2018-04-23T05:47:52.233Z,10.07
2018-04-23T05:48:26.095Z,10.77
2018-04-23T05:49:00.157Z,12.60
2018-04-23T05:49:34.068Z,9.68
2018-04-23T05:50:07.973Z,11.90
2018-04-23T05:50:41.855Z,10.50
2018-04-23T05:51:15.808Z,10.15
2018-04-23T05:51:49.823Z,11.57
2018-04-23T05:52:23.728Z,9.95
2018-04-23T05:52:57.613Z,11.07
2018-04-23T05:53:31.482Z,12.93
2018-04-23T05:54:05.351Z,14.18
2018-04-23T05:54:39.312Z,9.55
2018-04-23T05:55:13.205Z,8.98
2018-04-23T05:55:47.113Z,11.45
2018-04-23T05:56:20.987Z,10.75
2018-04-23T05:56:54.902Z,8.93
2018-04-23T05:57:28.810Z,12.43
2018-04-23T05:58:02.755Z,13.27
2018-04-23T05:58:36.664Z,12.63
2018-04-23T05:59:10.532Z,17.60
2018-04-23T05:59:44.413Z,9.98
2018-04-23T06:00:18.313Z,8.95
2018-04-23T06:00:52.216Z,14.48
2018-04-23T06:01:26.076Z,14.27
2018-04-23T06:01:59.978Z,16.10
2018-04-23T06:02:33.949Z,15.52
2018-04-23T06:03:07.833Z,10.00
2018-04-23T06:03:41.767Z,11.93
2018-04-23T06:04:15.716Z,12.37
2018-04-23T06:04:49.682Z,17.55
2018-04-23T06:05:23.595Z,10.50
2018-04-23T06:05:57.560Z,10.30
2018-04-23T06:06:31.431Z,13.57
2018-04-23T06:07:05.322Z,10.57
2018-04-23T06:07:39.284Z,11.52
2018-04-23T06:08:13.416Z,9.98
2018-04-23T06:08:47.288Z,12.73
2018-04-23T06:09:21.152Z,14.02
2018-04-23T06:09:55.167Z,12.37
2018-04-23T06:10:29.035Z,207.50
2018-04-23T06:11:03.033Z,272.70
2018-04-23T06:11:36.928Z,49.28
2018-04-23T06:12:10.793Z,19.33
2018-04-23T06:12:44.698Z,31.08
2018-04-23T06:13:18.699Z,172.87
2018-04-23T06:13:52.571Z,358.95
2018-04-23T06:14:26.526Z,114.18
2018-04-23T06:15:00.351Z,79.37
2018-04-23T06:15:34.225Z,111.62
2018-04-23T06:16:08.084Z,46.97
2018-04-23T06:16:41.952Z,24.65
2018-04-23T06:17:16.098Z,57.70
2018-04-23T06:17:49.956Z,21.55
2018-04-23T06:18:23.858Z,17.17
2018-04-23T06:18:57.716Z,13.68
2018-04-23T06:19:31.589Z,17.52
2018-04-23T06:20:06.597Z,16.80
2018-04-23T06:20:40.509Z,11.38
2018-04-23T06:21:14.680Z,12.15
2018-04-23T06:21:50.077Z,12.37
2018-04-23T06:22:24.008Z,10.77
2018-04-23T06:22:57.911Z,9.80
2018-04-23T06:23:31.788Z,10.77
2018-04-23T06:24:05.762Z,13.90
2018-04-23T06:24:42.818Z,16.27
2018-04-23T06:25:18.614Z,8.73
2018-04-23T06:25:53.089Z,11.27
2018-04-23T06:26:27.019Z,9.02
2018-04-23T06:27:00.888Z,12.18
2018-04-23T06:27:34.811Z,12.05
2018-04-23T06:28:08.790Z,9.70
2018-04-23T06:28:42.811Z,11.02
2018-04-23T06:29:16.766Z,10.55
2018-04-23T06:29:50.795Z,8.23
2018-04-23T06:30:24.778Z,9.73
2018-04-23T06:30:58.659Z,13.18
2018-04-23T06:31:32.531Z,8.43
2018-04-23T06:32:07.101Z,7.35
2018-04-23T06:32:41.037Z,9.45
2018-04-23T06:33:15.537Z,10.75
2018-04-23T06:33:50.206Z,14.75
2018-04-23T06:34:24.278Z,9.48
2018-04-23T06:35:00.876Z,11.30
2018-04-23T06:35:37.608Z,7.97
2018-04-23T06:36:14.370Z,9.30
2018-04-23T06:36:51.449Z,10.50
2018-04-23T06:37:28.208Z,9.98
2018-04-23T06:38:02.517Z,9.38
2018-04-23T06:38:38.317Z,7.10
2018-04-23T06:39:12.890Z,7.35
2018-04-23T06:39:48.610Z,9.18
2018-04-23T06:40:23.833Z,6.22
2018-04-23T06:40:59.217Z,9.40
2018-04-23T06:41:36.279Z,7.78
2018-04-23T06:42:12.572Z,11.32
2018-04-23T06:42:47.125Z,11.57
2018-04-23T06:43:21.028Z,9.38
2018-04-23T06:43:55.167Z,9.05
2018-04-23T06:44:31.074Z,10.50
2018-04-23T06:45:08.147Z,7.80
2018-04-23T06:45:43.813Z,7.60
2018-04-23T06:46:20.848Z,8.13
2018-04-23T06:46:57.753Z,6.62
2018-04-23T06:47:34.269Z,10.68
2018-04-23T06:48:08.816Z,6.93
2018-04-23T06:48:42.713Z,9.02
2018-04-23T06:49:19.086Z,7.55
2018-04-23T06:49:54.274Z,11.68
2018-04-23T06:50:28.517Z,10.00
2018-04-23T06:51:03.135Z,6.75
2018-04-23T06:51:38.715Z,8.85
2018-04-23T06:52:12.902Z,8.15
2018-04-23T06:52:47.175Z,9.90
2018-04-23T06:53:22.760Z,10.50
2018-04-23T06:53:58.653Z,10.45
2018-04-23T06:54:32.756Z,8.63
2018-04-23T06:55:06.711Z,11.18
2018-04-23T06:55:41.244Z,10.57
2018-04-23T06:56:16.211Z,6.85
2018-04-23T06:56:50.272Z,8.40
2018-04-23T06:57:26.312Z,7.37
2018-04-23T06:58:00.397Z,9.82
2018-04-23T06:58:35.962Z,7.50
2018-04-23T06:59:11.416Z,13.82
2018-04-23T06:59:45.345Z,13.02
2018-04-23T07:00:19.275Z,16.60
2018-04-23T07:00:53.218Z,11.88
2018-04-23T07:01:27.110Z,11.57
2018-04-23T07:02:03.908Z,9.02
2018-04-23T07:02:40.699Z,12.95
2018-04-23T07:03:17.413Z,9.35
2018-04-23T07:03:54.255Z,10.73
2018-04-23T07:04:30.209Z,8.57
2018-04-23T07:05:06.647Z,15.85
2018-04-23T07:05:40.596Z,8.32
2018-04-23T07:06:14.495Z,10.48
2018-04-23T07:06:51.536Z,9.48
2018-04-23T07:07:27.867Z,9.13
2018-04-23T07:08:01.771Z,10.98
2018-04-23T07:08:35.631Z,7.90
2018-04-23T07:09:09.488Z,6.82
2018-04-23T07:09:43.435Z,8.43
2018-04-23T07:10:17.292Z,9.10
2018-04-23T07:10:51.165Z,9.27
2018-04-23T07:11:25.021Z,7.40
2018-04-23T07:11:58.897Z,13.45
2018-04-23T07:12:32.819Z,9.15
2018-04-23T07:13:06.668Z,7.68
2018-04-23T07:14:11.011Z,11.50
2018-04-23T07:14:44.869Z,8.57
2018-04-23T07:15:18.736Z,10.38
2018-04-23T07:15:52.640Z,11.77
2018-04-23T07:16:26.553Z,9.85
2018-04-23T07:17:00.484Z,7.95
2018-04-23T07:17:34.403Z,10.50
2018-04-23T07:18:08.267Z,7.82
2018-04-23T07:18:42.135Z,8.43
2018-04-23T07:19:16.009Z,7.97
2018-04-23T07:19:49.991Z,10.02
2018-04-23T07:20:23.893Z,13.90
2018-04-23T07:20:57.780Z,11.80
2018-04-23T07:21:31.654Z,10.82
2018-04-23T07:22:05.555Z,11.23
2018-04-23T07:22:39.451Z,10.25
2018-04-23T07:23:13.379Z,7.45
2018-04-23T07:23:47.511Z,9.15